Marche Airport

LIPY · 马尔凯, 意大利

METAR的历史 LIPY · Ancona Falconara Airport

下面你可以看到过去几天的METARs。 选择年份以浏览从2007年开始的旧METAR。

2024年3月5日

时间 代码 天气 温度 能见度 天花板 METAR/SPECI
01:20
M
11 °C 10 km+ 2.600 ft Var Var 2 kt METAR LIPY 050020Z AUTO VRB02KT 9999 BKN026/// OVC043/// 11/10 Q1010
00:50
M
11 °C 10 km+ 2.500 ft Var Var 2 kt METAR LIPY 042350Z AUTO VRB02KT 9999 BKN025/// OVC044/// 11/10 Q1009
00:20
M
11 °C 10 km+ 2.600 ft Var Var 2 kt METAR LIPY 042320Z AUTO VRB02KT 9999 BKN026/// BKN046/// 11/10 Q1009

2024年3月4日

时间 代码 天气 温度 能见度 天花板 METAR/SPECI
23:50
V
11 °C 10 km+ - Var Var 1 kt METAR LIPY 042250Z AUTO VRB01KT 9999 FEW120/// 11/08 Q1008
23:20
V
12 °C 10 km+ 12.000 ft 070° 070° 5 kt METAR LIPY 042220Z AUTO 07005KT 9999 FEW075/// SCT089/// BKN120/// 12/09 Q1008
22:50
V
12 °C 10 km+ 5.900 ft 040° 040° 5 kt METAR LIPY 042150Z AUTO 04005KT 9999 FEW020/// BKN059/// OVC120/// 12/10 Q1008
22:20
V
12 °C 10 km+ 5.900 ft 030° 030° 4 kt METAR LIPY 042120Z AUTO 03004KT 9999 -RA FEW022/// BKN059/// OVC080/// 12/09 Q1008
21:50
V
12 °C 10 km+ 8.900 ft 080° 080° 3 kt METAR LIPY 042050Z AUTO 08003KT 050V140 9999 OVC089/// 12/09 Q1007
20:20
V
12 °C 10 km+ 3.100 ft 060° 060° 7 kt METAR LIPY 041920Z AUTO 06007KT 9999 BKN031/// BKN044/// 12/09 Q1007
19:50
V
12 °C 10 km+ 3.200 ft 070° 070° 6 kt METAR LIPY 041850Z AUTO 07006KT 030V100 9999 OVC032/// 12/09 Q1006
19:20
M
13 °C 10 km+ 2.600 ft 060° 060° 10 kt METAR LIPY 041820Z AUTO 06010KT 9999 OVC026/// 13/09 Q1006
18:50
V
13 °C 10 km+ 3.400 ft 060° 060° 10 kt METAR LIPY 041750Z AUTO 06010KT 9999 SCT019/// BKN034/// OVC048/// 13/09 Q1005
18:20
M
12 °C 10 km+ 1.900 ft 060° 060° 9 kt METAR LIPY 041720Z AUTO 06009KT 040V100 9999 BKN019/// BKN060/// 12/10 Q1005
17:50
V
12 °C 10 km+ 3.400 ft 050° 050° 13 kt METAR LIPY 041650Z AUTO 05013KT 9999 -RA FEW010/// OVC034/// 12/11 Q1004
17:20
M
12 °C 10 km+ 1.100 ft 060° 060° 11 kt METAR LIPY 041620Z AUTO 06011KT 9999 -RA SCT009/// OVC011/// 12/11 Q1004 RERA
16:50
M
12 °C 10 km+ 1.400 ft 050° 050° 12 kt METAR LIPY 041550Z AUTO 05012KT 9999 -RA BKN014/// OVC045/// 12/11 Q1004 RERA
16:20
I
11 °C 7 km 600 ft 020° 020° 12 kt METAR LIPY 041520Z AUTO 02012KT 330V040 7000 RA OVC006/// 11/11 Q1004
15:50
I
10 °C 7 km 900 ft 290° 290° 9 kt METAR LIPY 041450Z AUTO 29009KT 7000 RA OVC009/// 10/09 Q1004
15:20
M
10 °C 5 km 1.100 ft 300° 300° 8 kt METAR LIPY 041420Z AUTO 30008KT 260V010 5000 RA OVC011/// 10/09 Q1005
14:50
M
10 °C 9 km 1.300 ft 290° 290° 5 kt METAR LIPY 041350Z AUTO 29005KT 9000 RA OVC013/// 10/09 Q1005
14:20
M
11 °C 10 km+ 2.900 ft 310° 310° 7 kt METAR LIPY 041320Z AUTO 31007KT 9999 -RA FEW014/// OVC029/// 11/08 Q1005 RERA
13:50
V
11 °C 10 km+ 3.300 ft 320° 320° 10 kt METAR LIPY 041250Z AUTO 32010KT 9999 -RA OVC033/// 11/07 Q1005
13:20
V
11 °C 10 km+ 3.400 ft 330° 330° 11 kt METAR LIPY 041220Z AUTO 33011KT 9999 BKN034/// BKN074/// 11/07 Q1005
12:50
V
12 °C 10 km+ 9.400 ft 330° 330° 12 kt METAR LIPY 041150Z AUTO 33012KT 9999 SCT036/// SCT048/// BKN094/// 12/07 Q1005
12:20
V
12 °C 10 km+ 4.700 ft 330° 330° 12 kt METAR LIPY 041120Z AUTO 33012KT 9999 FEW039/// BKN047/// BKN097/// 12/07 Q1005
11:50
V
12 °C 10 km+ 5.100 ft 290° 290° 11 kt METAR LIPY 041050Z AUTO 29011KT 270V330 9999 OVC051/// 12/08 Q1005
11:20
V
11 °C 10 km+ 5.100 ft 270° 270° 7 kt METAR LIPY 041020Z AUTO 27007KT 9999 OVC051/// 11/08 Q1006
10:50
V
11 °C 10 km+ 5.700 ft 280° 280° 6 kt METAR LIPY 040950Z AUTO 28006KT 9999 -RA FEW008/// OVC057/// 11/09 Q1006
10:20
V
10 °C 10 km+ 4.700 ft 220° 220° 3 kt METAR LIPY 040920Z AUTO 22003KT 9999 -RA OVC047/// 10/09 Q1006
09:50
V
10 °C 10 km+ 4.600 ft 230° 230° 5 kt METAR LIPY 040850Z AUTO 23005KT 9999 -RA OVC046/// 10/09 Q1006 RERA
09:20
V
10 °C 10 km+ 4.400 ft 250° 250° 3 kt METAR LIPY 040820Z AUTO 25003KT 9999 -RA OVC044/// 10/09 Q1005
08:50
V
9 °C 10 km+ 4.500 ft Var Var 2 kt METAR LIPY 040750Z AUTO VRB02KT 9999 -RA OVC045/// 09/09 Q1005
08:20
V
9 °C 10 km+ 4.100 ft 310° 310° 3 kt METAR LIPY 040720Z AUTO 31003KT 9999 -RA OVC041/// 09/08 Q1005 RERA
07:50
V
9 °C 10 km+ 3.800 ft Var Var 2 kt METAR LIPY 040650Z AUTO VRB02KT 9999 -RA OVC038/// 09/08 Q1005
07:20
V
9 °C 10 km+ 3.300 ft 300° 300° 2 kt METAR LIPY 040620Z AUTO 30002KT 9999 -RA OVC033/// 09/08 Q1004
06:50
V
9 °C 10 km+ 4.000 ft 360° 360° 4 kt METAR LIPY 040550Z AUTO 36004KT 330V030 9999 -RA SCT026/// BKN040/// OVC053/// 09/08 Q1004 RERA
06:20
M
9 °C 10 km+ 2.100 ft 330° 330° 3 kt METAR LIPY 040520Z AUTO 33003KT 290V050 9999 RA BKN021/// OVC052/// 09/09 Q1004
05:50
M
9 °C 10 km+ 2.200 ft Var Var 1 kt METAR LIPY 040450Z AUTO VRB01KT 9999 -RA BKN022/// BKN035/// OVC047/// 09/09 Q1004
05:20
V
9 °C 10 km+ 3.600 ft 150° 150° 3 kt METAR LIPY 040420Z AUTO 15003KT 130V190 9999 -RA FEW022/// OVC036/// 09/09 Q1004
04:50
V
9 °C 10 km+ 5.100 ft Var Var 2 kt METAR LIPY 040350Z AUTO VRB02KT 9999 -RA OVC051/// 09/09 Q1004
04:20
V
10 °C 10 km+ 5.800 ft Var Var 2 kt METAR LIPY 040320Z AUTO VRB02KT 9999 -RA OVC058/// 10/08 Q1003
03:50
V
10 °C 10 km+ 6.100 ft 190° 190° 3 kt METAR LIPY 040250Z AUTO 19003KT 160V220 9999 -RA OVC061/// 10/08 Q1003
03:20
V
10 °C 10 km+ 6.900 ft 190° 190° 3 kt METAR LIPY 040220Z AUTO 19003KT 150V230 9999 -RA OVC069/// 10/09 Q1003
02:50
V
10 °C 10 km+ 6.200 ft 130° 130° 2 kt METAR LIPY 040150Z AUTO 13002KT 9999 -RA OVC062/// 10/07 Q1003
02:20
V
10 °C 10 km+ 6.700 ft 230° 230° 4 kt METAR LIPY 040120Z AUTO 23004KT 9999 -RA OVC067/// 10/07 Q1004
01:50
V
11 °C 10 km+ 9.200 ft Var Var 2 kt METAR LIPY 040050Z AUTO VRB02KT 9999 FEW058/// BKN092/// 11/07 Q1004
01:20
V
10 °C 10 km+ 10.000 ft Var Var 2 kt METAR LIPY 040020Z AUTO VRB02KT 9999 OVC100/// 10/06 Q1004
00:50
V
11 °C 10 km+ 9.400 ft 020° 020° 3 kt METAR LIPY 032350Z AUTO 02003KT 9999 BKN094/// 11/06 Q1004
00:20
V
11 °C 10 km+ 9.400 ft 300° 300° 3 kt METAR LIPY 032320Z AUTO 30003KT 260V360 9999 OVC094/// 11/07 Q1004

2024年3月3日

时间 代码 天气 温度 能见度 天花板 METAR/SPECI
23:50
V
11 °C 10 km+ 21.000 ft 320° 320° 3 kt METAR LIPY 032250Z AUTO 32003KT 250V020 9999 FEW062/// SCT094/// BKN210/// 11/07 Q1004
23:20
V
12 °C 10 km+ 8.400 ft 280° 280° 3 kt METAR LIPY 032220Z AUTO 28003KT 230V030 9999 -RA FEW066/// BKN084/// BKN100/// 12/08 Q1004
22:50
V
13 °C 10 km+ 6.800 ft 240° 240° 9 kt METAR LIPY 032150Z AUTO 24009KT 200V270 9999 -RA OVC068/// 13/09 Q1004 REDZ
22:20
V
12 °C 10 km+ 10.000 ft 250° 250° 5 kt METAR LIPY 032120Z AUTO 25005KT 210V270 9999 OVC100/// 12/10 Q1004
21:50
V
14 °C 10 km+ 11.000 ft Var Var 2 kt METAR LIPY 032050Z AUTO VRB02KT 9999 SCT016/// BKN110/// 14/10 Q1003
21:20
V
14 °C 10 km+ 10.000 ft Var Var 2 kt METAR LIPY 032020Z AUTO VRB02KT 9999 SCT017/// BKN100/// 14/10 Q1004
20:50
V
14 °C 10 km+ 11.000 ft Var Var 3 kt METAR LIPY 031950Z AUTO VRB03KT 9999 FEW018/// BKN110/// BKN210/// 14/10 Q1004
20:20
V
14 °C 10 km+ 12.000 ft Var Var 5 kt METAR LIPY 031920Z AUTO VRB05KT 9999 FEW017/// BKN120/// OVC130/// 14/10 Q1004
19:50
V
14 °C 10 km+ 12.000 ft Var Var 6 kt METAR LIPY 031850Z AUTO VRB06KT 9999 OVC120/// 14/10 Q1004
19:20
V
14 °C 10 km+ 13.000 ft 130° 130° 6 kt METAR LIPY 031820Z AUTO 13006KT 080V180 9999 BKN130/// OVC180/// 14/09 Q1004
18:50
V
14 °C 10 km+ 19.000 ft 140° 140° 5 kt METAR LIPY 031750Z AUTO 14005KT 060V210 9999 FEW100/// SCT150/// BKN190/// 14/09 Q1005
18:20
V
14 °C 10 km+ 10.000 ft 140° 140° 6 kt METAR LIPY 031720Z AUTO 14006KT 090V210 9999 BKN100/// BKN180/// 14/09 Q1005
17:50
V
14 °C 10 km+ 18.000 ft 150° 150° 5 kt METAR LIPY 031650Z AUTO 15005KT 100V190 9999 BKN180/// 14/09 Q1005
17:20
V
14 °C 10 km+ 21.000 ft 140° 140° 8 kt METAR LIPY 031620Z AUTO 14008KT 100V190 9999 BKN210/// 14/09 Q1005
16:50
V
14 °C 10 km+ - 150° 150° 8 - 18 kt METAR LIPY 031550Z AUTO 15008G18KT 120V190 9999 FEW210/// 14/08 Q1005
16:20
V
14 °C 10 km+ - 120° 120° 9 kt METAR LIPY 031520Z AUTO 12009KT 080V170 9999 NCD 14/09 Q1006
15:50
V
15 °C 10 km+ - 120° 120° 10 kt METAR LIPY 031450Z AUTO 12010KT 080V170 9999 NCD 15/09 Q1006
15:20
V
15 °C 10 km+ - 120° 120° 9 kt METAR LIPY 031420Z AUTO 12009KT 090V170 9999 NCD 15/09 Q1006
14:50
V
16 °C 10 km+ - 130° 130° 9 kt METAR LIPY 031350Z AUTO 13009KT 090V170 9999 NCD 16/08 Q1006
14:20
V
17 °C 10 km+ - 130° 130° 8 kt METAR LIPY 031320Z AUTO 13008KT 090V170 9999 NCD 17/07 Q1007
13:50
V
17 °C 10 km+ - 120° 120° 11 kt METAR LIPY 031250Z AUTO 12011KT 080V140 9999 NCD 17/08 Q1007
13:20
V
17 °C 10 km+ - 120° 120° 7 kt METAR LIPY 031220Z AUTO 12007KT 050V170 9999 FEW039/// 17/09 Q1008
12:50
V
15 °C 10 km+ - 040° 040° 8 kt METAR LIPY 031150Z AUTO 04008KT 9999 FEW035/// 15/10 Q1008
12:20
V
15 °C 10 km+ - 050° 050° 7 kt METAR LIPY 031120Z AUTO 05007KT 9999 NCD 15/11 Q1009
11:50
V
14 °C 10 km+ - 040° 040° 5 kt METAR LIPY 031050Z AUTO 04005KT 9999 FEW220/// 14/10 Q1009
11:20
V
15 °C 10 km+ - 100° 100° 5 kt METAR LIPY 031020Z AUTO 10005KT 070V140 9999 FEW240/// 15/09 Q1009
10:50
V
15 °C 10 km+ - 100° 100° 5 kt METAR LIPY 030950Z AUTO 10005KT 070V140 9999 NCD 15/10 Q1009
10:20
V
14 °C 10 km+ - Var Var 3 kt METAR LIPY 030920Z AUTO VRB03KT 9999 NCD 14/09 Q1009
09:50
V
12 °C 10 km+ - 250° 250° 3 kt METAR LIPY 030850Z AUTO 25003KT 9999 NCD 12/07 Q1010
09:20
V
11 °C 10 km+ - Var Var 2 kt METAR LIPY 030820Z AUTO VRB02KT 9999 NCD 11/07 Q1010
08:50
V
10 °C 10 km+ - Var Var 2 kt METAR LIPY 030750Z AUTO VRB02KT 9999 NCD 10/07 Q1010
08:20
V
9 °C 10 km+ - Var Var 2 kt METAR LIPY 030720Z AUTO VRB02KT 9999 NCD 09/06 Q1010
07:50
V
7 °C 10 km+ - 210° 210° 3 kt METAR LIPY 030650Z AUTO 21003KT 9999 FEW240/// 07/05 Q1010
07:20
V
7 °C 10 km+ - 190° 190° 4 kt METAR LIPY 030620Z AUTO 19004KT 9999 NCD 07/05 Q1010
06:50
V
6 °C 10 km+ - 200° 200° 4 kt METAR LIPY 030550Z AUTO 20004KT 9999 NCD 06/05 Q1010
06:20
V
5 °C 10 km+ - 200° 200° 3 kt METAR LIPY 030520Z AUTO 20003KT 170V230 9999 NCD 05/04 Q1010
05:50
V
4 °C 10 km+ - 250° 250° 4 kt METAR LIPY 030450Z AUTO 25004KT 9999 NCD 04/03 Q1010
05:20
V
5 °C 10 km+ - 240° 240° 3 kt METAR LIPY 030420Z AUTO 24003KT 9999 NCD 05/04 Q1010
04:50
V
7 °C 10 km+ - 150° 150° 4 kt METAR LIPY 030350Z AUTO 15004KT 9999 NCD 07/05 Q1010
04:20
V
7 °C 10 km+ - 180° 180° 4 kt METAR LIPY 030320Z AUTO 18004KT 9999 NCD 07/06 Q1010
03:50
V
6 °C 10 km+ - 220° 220° 4 kt METAR LIPY 030250Z AUTO 22004KT 180V270 9999 NCD 06/05 Q1010
03:20
V
7 °C 10 km+ - 200° 200° 4 kt METAR LIPY 030220Z AUTO 20004KT 160V230 9999 NCD 07/06 Q1011
02:50
V
8 °C 10 km+ - 200° 200° 3 kt METAR LIPY 030150Z AUTO 20003KT 170V230 9999 NCD 08/06 Q1011
02:20
V
7 °C 10 km+ - 220° 220° 4 kt METAR LIPY 030120Z AUTO 22004KT 170V240 9999 NCD 07/06 Q1011
01:50
V
7 °C 10 km+ - 220° 220° 4 kt METAR LIPY 030050Z AUTO 22004KT 9999 FEW084/// 07/05 Q1011
01:20
V
9 °C 10 km+ 8.400 ft 160° 160° 3 kt METAR LIPY 030020Z AUTO 16003KT 9999 FEW069/// BKN084/// 09/06 Q1011
00:50
V
8 °C 10 km+ 8.300 ft Var Var 1 kt METAR LIPY 022350Z AUTO VRB01KT 9999 SCT069/// BKN083/// 08/05 Q1011
00:20
V
8 °C 10 km+ 7.400 ft Var Var 2 kt METAR LIPY 022320Z AUTO VRB02KT 9999 BKN074/// BKN098/// 08/05 Q1011

2024年3月2日

时间 代码 天气 温度 能见度 天花板 METAR/SPECI
23:50
V
10 °C 10 km+ - 160° 160° 4 kt METAR LIPY 022250Z AUTO 16004KT 9999 FEW075/// 10/06 Q1011
23:20
V
9 °C 10 km+ - 160° 160° 3 kt METAR LIPY 022220Z AUTO 16003KT 9999 FEW094/// 09/06 Q1011
22:50
V
9 °C 10 km+ - 180° 180° 3 kt METAR LIPY 022150Z AUTO 18003KT 9999 NCD 09/06 Q1011
22:20
V
9 °C 10 km+ - 180° 180° 2 kt METAR LIPY 022120Z AUTO 18002KT 9999 NCD 09/06 Q1011
21:50
V
9 °C 10 km+ - Var Var 1 kt METAR LIPY 022050Z AUTO VRB01KT 9999 NCD 09/06 Q1011
21:20
V
10 °C 10 km+ - 190° 190° 2 kt METAR LIPY 022020Z AUTO 19002KT 9999 NCD 10/06 Q1011
20:50
V
11 °C 10 km+ - 200° 200° 3 kt METAR LIPY 021950Z AUTO 20003KT 9999 NCD 11/07 Q1011
20:20
V
12 °C 10 km+ - 210° 210° 4 kt METAR LIPY 021920Z AUTO 21004KT 9999 NCD 12/08 Q1011
19:50
V
12 °C 10 km+ - 190° 190° 3 kt METAR LIPY 021850Z AUTO 19003KT 9999 NCD 12/08 Q1011
19:20
V
13 °C 10 km+ 7.100 ft 200° 200° 6 kt METAR LIPY 021820Z AUTO 20006KT 9999 BKN071/// 13/08 Q1011
18:50
V
14 °C 10 km+ 7.400 ft 210° 210° 5 kt METAR LIPY 021750Z AUTO 21005KT 9999 SCT065/// BKN074/// 14/08 Q1010
18:20
V
15 °C 10 km+ 5.500 ft 220° 220° 7 kt METAR LIPY 021720Z AUTO 22007KT 9999 BKN055/// 15/07 Q1010
17:50
V
15 °C 10 km+ 5.100 ft 230° 230° 7 kt METAR LIPY 021650Z AUTO 23007KT 9999 BKN051/// 15/08 Q1010
17:20
V
15 °C 10 km+ 6.300 ft 220° 220° 5 kt METAR LIPY 021620Z AUTO 22005KT 9999 BKN063/// 15/08 Q1009
16:50
V
16 °C 10 km+ 6.300 ft 160° 160° 3 kt METAR LIPY 021550Z AUTO 16003KT 9999 BKN063/// 16/08 Q1009
16:20
V
17 °C 10 km+ - 190° 190° 3 kt METAR LIPY 021520Z AUTO 19003KT 140V240 9999 FEW072/// 17/07 Q1009
15:50
V
17 °C 10 km+ - 190° 190° 3 kt METAR LIPY 021450Z AUTO 19003KT 140V240 9999 NCD 17/07 Q1009
15:20
V
17 °C 10 km+ - Var Var 2 kt METAR LIPY 021420Z AUTO VRB02KT 9999 SCT088/// 17/07 Q1009
14:50
V
16 °C 10 km+ 7.900 ft 240° 240° 6 kt METAR LIPY 021350Z AUTO 24006KT 220V280 9999 BKN079/// 16/08 Q1009
14:20
V
16 °C 10 km+ 7.800 ft 220° 220° 5 kt METAR LIPY 021320Z AUTO 22005KT 160V250 9999 FEW058/// BKN078/// BKN089/// 16/09 Q1009
13:50
V
16 °C 10 km+ 5.700 ft 230° 230° 8 kt METAR LIPY 021250Z AUTO 23008KT 9999 FEW033/// BKN057/// BKN130/// 16/09 Q1010
13:20
V
15 °C 10 km+ 5.700 ft 240° 240° 8 kt METAR LIPY 021220Z AUTO 24008KT 210V270 9999 FEW034/// BKN057/// OVC083/// 15/09 Q1010
12:50
V
16 °C 10 km+ 8.700 ft 220° 220° 8 kt METAR LIPY 021150Z AUTO 22008KT 9999 FEW055/// SCT067/// BKN087/// 16/09 Q1010
12:20
V
15 °C 10 km+ 4.600 ft 210° 210° 6 kt METAR LIPY 021120Z AUTO 21006KT 180V240 9999 BKN046/// 15/08 Q1010
11:50
V
15 °C 10 km+ 4.000 ft 200° 200° 5 kt METAR LIPY 021050Z AUTO 20005KT 170V230 9999 BKN040/// OVC051/// 15/08 Q1010
11:20
V
14 °C 10 km+ 4.100 ft 200° 200° 5 kt METAR LIPY 021020Z AUTO 20005KT 9999 OVC041/// 14/08 Q1010
10:50
V
14 °C 10 km+ 4.200 ft 200° 200° 6 kt METAR LIPY 020950Z AUTO 20006KT 9999 OVC042/// 14/08 Q1010
10:20
V
14 °C 10 km+ 4.600 ft 190° 190° 4 kt METAR LIPY 020920Z AUTO 19004KT 150V240 9999 OVC046/// 14/08 Q1010
09:50
V
14 °C 10 km+ 4.700 ft 170° 170° 4 kt METAR LIPY 020850Z AUTO 17004KT 130V200 9999 OVC047/// 14/08 Q1009
09:20
V
13 °C 10 km+ 4.800 ft 160° 160° 3 kt METAR LIPY 020820Z AUTO 16003KT 130V190 9999 OVC048/// 13/08 Q1009
08:50
V
12 °C 10 km+ 5.900 ft Var Var 2 kt METAR LIPY 020750Z AUTO VRB02KT 9999 OVC059/// 12/08 Q1009
08:20
V
12 °C 10 km+ 6.000 ft 180° 180° 3 kt METAR LIPY 020720Z AUTO 18003KT 9999 OVC060/// 12/08 Q1009
07:50
V
11 °C 10 km+ 6.300 ft 170° 170° 2 kt METAR LIPY 020650Z AUTO 17002KT 9999 BKN063/// OVC100/// 11/08 Q1009
07:20
V
10 °C 10 km+ 5.800 ft 190° 190° 3 kt METAR LIPY 020620Z AUTO 19003KT 160V220 9999 BKN058/// BKN110/// 10/09 Q1008
06:50
V
10 °C 10 km+ 5.000 ft 220° 220° 4 kt METAR LIPY 020550Z AUTO 22004KT 9999 BKN050/// BKN110/// 10/09 Q1008